Bookmark and Share
Track history (hours):
 

Clare Christine

Last reported at 2014-Apr-18 02:26 UTC. Time now 2014-Apr-18 02:59 UTC.
Position N 38°29' W 009°45'.

Length 89 m; draft 3.3 m.

Type: Cargo ship. MMSI: 305379000.

NotesDate/timePositionNaut miles runAvg speedWind from/ knotsBaromVisibWave heightAir tempDewpointWater temp
2014-Apr-18 02:26N 38°29' W 009°45'8 9.2
2014-Apr-18 01:33N 38°21' W 009°43'9 8.8
2014-Apr-18 00:32N 38°12' W 009°41'9 8.9
2014-Apr-17 23:32N 38°03' W 009°38'9 9.0
2014-Apr-17 22:33N 37°55' W 009°35'8 8.4
2014-Apr-17 21:33N 37°47' W 009°33'8 8.1
2014-Apr-17 20:33N 37°39' W 009°31'8 8.4
2014-Apr-17 19:33N 37°31' W 009°29'9 8.9
2014-Apr-17 18:33N 37°22' W 009°26'9 9.2
2014-Apr-17 17:33N 37°13' W 009°24'10 9.6
2014-Apr-17 16:33N 37°04' W 009°21'10 9.8
2014-Apr-17 15:30N 36°54' W 009°17'910.0
2014-Apr-17 14:33N 36°47' W 009°09'1010.0
2014-Apr-17 13:33N 36°43' W 008°58'1010.4
2014-Apr-17 12:33N 36°40' W 008°46'1110.6
2014-Apr-17 11:33N 36°36' W 008°33'5510.3
2014-Apr-17 06:15N 36°19' W 007°28'8410.8
2014-Apr-16 22:27N 35°58' W 005°47'910.5
2014-Apr-16 21:33N 35°58' W 005°36'8 7.9
2014-Apr-16 20:33N 36°00' W 005°27'7 7.2
2014-Apr-16 19:33N 36°01' W 005°18'9 9.2
2014-Apr-16 18:33N 36°02' W 005°07'  
2014-Apr-14 08:30N 36°58' E 002°29'5 5.0
2014-Apr-14 07:33N 36°59' E 002°34'5 5.5
2014-Apr-14 06:33N 36°59' E 002°41'181 6.0
2014-Apr-13 00:22N 37°13' E 006°28'6 5.3
2014-Apr-12 23:11N 37°12' E 006°35'9 5.8
2014-Apr-12 21:33N 37°07' E 006°45'7 7.3
2014-Apr-12 20:33N 37°03' E 006°53'  

Dump ship's entire track history

sailing weather and tide predictions

Clare Christine — V2DT7 — position and weather